createdAt,value
2023-01-29T04:01:43.941Z,6.37
2023-01-29T04:04:15.997Z,5.10
2023-01-29T04:06:48.408Z,5.27
2023-01-29T04:09:22.201Z,5.53
2023-01-29T04:11:56.137Z,5.40
2023-01-29T04:14:24.671Z,5.13
2023-01-29T04:17:01.193Z,5.27
2023-01-29T04:19:37.692Z,4.97
2023-01-29T04:22:08.557Z,4.90
2023-01-29T04:24:38.791Z,5.00
2023-01-29T04:27:20.839Z,5.13
2023-01-29T04:30:01.637Z,5.03
2023-01-29T04:32:48.104Z,5.70
2023-01-29T04:35:27.376Z,5.60
2023-01-29T04:38:08.085Z,5.17
2023-01-29T04:40:45.131Z,5.07
2023-01-29T04:43:19.310Z,4.60
2023-01-29T04:45:57.194Z,5.13
2023-01-29T04:48:31.035Z,5.30
2023-01-29T04:51:05.336Z,5.53
2023-01-29T04:53:41.129Z,5.20
2023-01-29T04:56:16.083Z,5.23
2023-01-29T04:58:48.194Z,4.73
2023-01-29T05:01:19.738Z,5.20
2023-01-29T05:03:52.466Z,5.10
2023-01-29T05:06:22.216Z,5.07
2023-01-29T05:08:52.091Z,5.20
2023-01-29T05:11:20.917Z,5.30
2023-01-29T05:13:49.641Z,4.70
2023-01-29T05:16:21.776Z,5.30
2023-01-29T05:18:51.332Z,4.63
2023-01-29T05:21:20.369Z,5.20
2023-01-29T05:23:58.881Z,5.13
2023-01-29T05:26:45.204Z,4.60
2023-01-29T05:29:13.050Z,4.67
2023-01-29T05:31:40.935Z,5.10
2023-01-29T05:34:10.338Z,5.20
2023-01-29T05:36:38.186Z,4.90
2023-01-29T05:39:06.089Z,4.83
2023-01-29T05:41:34.490Z,4.67
2023-01-29T05:44:02.295Z,5.40
2023-01-29T05:46:30.259Z,5.20
2023-01-29T05:48:58.157Z,4.90
2023-01-29T05:51:27.299Z,4.87
2023-01-29T05:53:55.231Z,4.73
2023-01-29T05:56:23.098Z,5.00
2023-01-29T05:58:50.910Z,4.80
2023-01-29T06:01:20.518Z,4.93
2023-01-29T06:03:49.046Z,5.27
2023-01-29T06:06:17.322Z,5.30
2023-01-29T06:08:46.476Z,4.80
2023-01-29T06:11:16.365Z,5.00
2023-01-29T06:13:47.752Z,5.37
2023-01-29T06:16:16.000Z,5.10
2023-01-29T06:18:44.705Z,5.30
2023-01-29T06:21:14.483Z,5.13
2023-01-29T06:23:42.339Z,5.40
2023-01-29T06:26:14.590Z,5.50
2023-01-29T06:28:42.681Z,6.07
2023-01-29T06:31:31.412Z,5.73
2023-01-29T06:33:59.848Z,5.47
2023-01-29T06:36:27.772Z,5.70
2023-01-29T06:38:55.617Z,5.50
2023-01-29T06:41:25.497Z,5.70
2023-01-29T06:43:54.091Z,5.60
2023-01-29T06:46:21.945Z,9.20
2023-01-29T06:48:50.055Z,6.70
2023-01-29T06:51:18.165Z,6.10
2023-01-29T06:53:46.731Z,5.37
2023-01-29T06:56:15.017Z,6.00
2023-01-29T06:58:44.477Z,5.90
2023-01-29T07:01:29.011Z,6.20
2023-01-29T07:04:01.486Z,6.73
2023-01-29T07:06:30.061Z,6.37
2023-01-29T07:08:58.050Z,14.07
2023-01-29T07:11:25.957Z,14.50
2023-01-29T07:13:55.160Z,16.40
2023-01-29T07:16:23.407Z,9.80
2023-01-29T07:18:51.400Z,7.80
2023-01-29T07:21:19.334Z,6.90
2023-01-29T07:23:47.398Z,7.10
2023-01-29T07:26:15.257Z,8.30
2023-01-29T07:28:43.104Z,8.60
2023-01-29T07:31:14.930Z,9.50
2023-01-29T07:33:44.316Z,7.17
2023-01-29T07:36:13.439Z,6.53
2023-01-29T07:38:42.491Z,7.40
2023-01-29T07:41:12.412Z,6.70
2023-01-29T07:43:40.303Z,6.50
2023-01-29T07:46:08.566Z,7.13
2023-01-29T07:48:37.900Z,6.47
2023-01-29T07:51:07.268Z,6.77
2023-01-29T07:53:35.799Z,6.97
2023-01-29T07:56:03.798Z,7.80
2023-01-29T07:58:31.619Z,7.90
2023-01-29T08:00:59.555Z,7.57
2023-01-29T08:03:27.460Z,6.73
2023-01-29T08:05:59.239Z,6.30
2023-01-29T08:08:27.062Z,7.20
2023-01-29T08:10:55.853Z,7.07
2023-01-29T08:13:23.715Z,7.97
2023-01-29T08:15:52.645Z,7.20
2023-01-29T08:18:20.475Z,7.30
2023-01-29T08:20:48.710Z,7.40
2023-01-29T08:23:21.279Z,10.00
2023-01-29T08:25:49.128Z,8.27
2023-01-29T08:28:17.936Z,7.30
2023-01-29T08:30:45.904Z,7.37
2023-01-29T08:33:13.774Z,6.97
2023-01-29T08:35:41.693Z,7.43
2023-01-29T08:38:10.798Z,7.13
2023-01-29T08:40:40.228Z,7.17
2023-01-29T08:43:09.623Z,7.13
2023-01-29T08:45:40.946Z,6.67
2023-01-29T08:48:09.807Z,6.87
2023-01-29T08:50:38.133Z,6.97
2023-01-29T08:53:08.475Z,7.50
2023-01-29T08:55:40.926Z,7.47
2023-01-29T08:58:12.325Z,6.40
2023-01-29T09:00:42.546Z,6.60
2023-01-29T09:03:10.412Z,6.80
2023-01-29T09:05:39.856Z,7.27
2023-01-29T09:08:09.431Z,6.87
2023-01-29T09:10:37.639Z,7.00
2023-01-29T09:13:06.282Z,5.90
2023-01-29T09:15:37.498Z,6.30
2023-01-29T09:18:06.292Z,6.87
2023-01-29T09:20:34.360Z,6.40
2023-01-29T09:23:05.946Z,6.80
2023-01-29T09:25:33.857Z,6.33
2023-01-29T09:28:01.669Z,6.43
2023-01-29T09:30:29.620Z,6.33
2023-01-29T09:33:00.873Z,5.73
2023-01-29T09:35:28.887Z,7.33
2023-01-29T09:37:56.903Z,6.07
2023-01-29T09:40:35.251Z,6.13
2023-01-29T09:43:07.499Z,5.93
2023-01-29T09:45:37.651Z,6.23
2023-01-29T09:48:12.465Z,6.43
2023-01-29T09:50:44.580Z,8.13
2023-01-29T09:53:19.167Z,6.13
2023-01-29T09:55:51.382Z,5.77
2023-01-29T09:58:25.366Z,5.53
2023-01-29T10:01:00.734Z,5.90
2023-01-29T10:03:44.861Z,6.33
2023-01-29T10:06:29.289Z,7.63
2023-01-29T10:09:31.925Z,6.57
2023-01-29T10:12:13.450Z,6.20
2023-01-29T10:14:49.689Z,6.70
2023-01-29T10:17:41.477Z,6.00
2023-01-29T10:20:29.819Z,6.40
2023-01-29T10:23:17.320Z,6.00
2023-01-29T10:25:47.600Z,6.27
2023-01-29T10:28:19.558Z,6.47
2023-01-29T10:30:50.523Z,6.47
2023-01-29T10:33:22.889Z,6.80
2023-01-29T10:35:57.220Z,6.50
2023-01-29T10:38:34.928Z,6.57
2023-01-29T10:41:15.473Z,7.57
2023-01-29T10:43:54.587Z,5.90
2023-01-29T10:46:34.421Z,6.40
2023-01-29T10:49:16.238Z,5.77
2023-01-29T10:51:55.223Z,5.70
2023-01-29T10:54:50.296Z,5.83
2023-01-29T10:57:39.855Z,5.27
2023-01-29T11:00:13.979Z,6.10
2023-01-29T11:02:46.326Z,5.50
2023-01-29T11:05:21.727Z,5.80
2023-01-29T11:08:03.890Z,5.77
2023-01-29T11:10:37.839Z,8.20
2023-01-29T11:13:06.868Z,6.20
2023-01-29T11:15:35.621Z,5.97
2023-01-29T11:18:06.084Z,6.40
2023-01-29T11:20:34.753Z,6.43
2023-01-29T11:23:05.679Z,6.53
2023-01-29T11:25:34.635Z,6.33
2023-01-29T11:28:05.279Z,5.93
2023-01-29T11:30:36.477Z,6.10
2023-01-29T11:33:10.021Z,6.10
2023-01-29T11:35:38.680Z,5.43
2023-01-29T11:38:20.728Z,6.57
2023-01-29T11:40:49.063Z,6.43
2023-01-29T11:43:23.879Z,6.20
2023-01-29T11:45:54.143Z,6.00
2023-01-29T11:48:24.247Z,5.77
2023-01-29T11:50:54.548Z,6.00
2023-01-29T11:53:38.321Z,5.97
2023-01-29T11:56:17.883Z,5.73
2023-01-29T11:58:47.984Z,6.10
2023-01-29T12:01:19.272Z,6.00
2023-01-29T12:03:53.821Z,6.10
2023-01-29T12:06:24.290Z,5.90
2023-01-29T12:08:59.711Z,5.90
2023-01-29T12:11:31.523Z,6.00
2023-01-29T12:14:01.223Z,5.87
2023-01-29T12:16:33.107Z,5.20
2023-01-29T12:19:11.337Z,5.83
2023-01-29T12:21:47.013Z,6.00
2023-01-29T12:24:32.702Z,6.10
2023-01-29T12:27:08.486Z,6.03
2023-01-29T12:29:46.010Z,6.30
2023-01-29T12:32:27.209Z,6.20
2023-01-29T12:35:02.617Z,5.63
2023-01-29T12:37:40.726Z,6.30
2023-01-29T12:40:15.912Z,5.83
2023-01-29T12:42:48.290Z,5.67
2023-01-29T12:45:19.570Z,5.83
2023-01-29T12:47:51.581Z,6.03
2023-01-29T12:50:22.193Z,5.97
2023-01-29T12:52:53.019Z,5.43
2023-01-29T12:55:25.900Z,5.60
2023-01-29T12:57:58.410Z,5.87
2023-01-29T13:00:30.159Z,5.73
2023-01-29T13:03:05.286Z,5.60
2023-01-29T13:05:42.329Z,5.67
2023-01-29T13:08:15.028Z,5.50
2023-01-29T13:10:47.381Z,5.50
2023-01-29T13:13:23.059Z,5.90
2023-01-29T13:15:51.068Z,5.70
2023-01-29T13:18:44.803Z,5.70
2023-01-29T13:21:19.045Z,5.70
2023-01-29T13:23:49.434Z,5.33
2023-01-29T13:26:20.887Z,5.40
2023-01-29T13:28:50.153Z,6.20
2023-01-29T13:31:28.029Z,5.73
2023-01-29T13:34:00.930Z,5.77
2023-01-29T13:36:31.334Z,5.60
2023-01-29T13:39:06.595Z,5.30
2023-01-29T13:41:42.407Z,5.57
2023-01-29T13:44:22.031Z,6.07
2023-01-29T13:46:54.643Z,6.10
2023-01-29T13:49:28.020Z,5.73
2023-01-29T13:51:56.236Z,6.90
2023-01-29T13:54:27.719Z,6.20
2023-01-29T13:57:02.074Z,5.60
2023-01-29T13:59:53.092Z,5.93
2023-01-29T14:02:26.512Z,6.00
2023-01-29T14:05:38.962Z,5.97
2023-01-29T14:08:27.507Z,5.97
2023-01-29T14:11:29.892Z,6.27
2023-01-29T14:13:59.100Z,6.33
2023-01-29T14:16:36.567Z,5.70
2023-01-29T14:19:06.318Z,6.50
2023-01-29T14:21:35.306Z,5.60
2023-01-29T14:24:12.667Z,6.10
2023-01-29T14:26:47.387Z,6.27
2023-01-29T14:29:33.871Z,8.50
2023-01-29T14:32:13.091Z,7.20
2023-01-29T14:34:45.546Z,6.90
2023-01-29T14:37:22.289Z,6.17
2023-01-29T14:39:52.391Z,5.50
2023-01-29T14:42:25.075Z,5.30
2023-01-29T14:45:09.037Z,5.80
2023-01-29T14:48:01.190Z,5.67
2023-01-29T14:50:46.651Z,5.20
2023-01-29T14:53:20.787Z,5.67
2023-01-29T14:55:53.658Z,6.23
2023-01-29T14:58:28.939Z,5.23
2023-01-29T15:01:00.464Z,5.63
2023-01-29T15:03:37.390Z,5.20
2023-01-29T15:06:08.285Z,5.73
2023-01-29T15:08:41.563Z,5.83
2023-01-29T15:11:32.693Z,4.87
2023-01-29T15:14:11.180Z,6.13
2023-01-29T15:16:49.484Z,5.60
2023-01-29T15:19:25.612Z,5.57
2023-01-29T15:22:21.350Z,5.30
2023-01-29T15:25:04.530Z,5.37
2023-01-29T15:27:32.899Z,5.10
2023-01-29T15:30:03.317Z,5.03
2023-01-29T15:32:37.278Z,5.00
2023-01-29T15:35:10.182Z,5.07
2023-01-29T15:37:38.859Z,4.70
2023-01-29T15:40:16.191Z,5.20
2023-01-29T15:42:46.572Z,5.10
2023-01-29T15:45:30.034Z,5.33
2023-01-29T15:48:04.968Z,5.00
2023-01-29T15:50:36.411Z,4.87
2023-01-29T15:53:07.606Z,4.77
2023-01-29T15:55:36.851Z,5.17
2023-01-29T15:58:05.419Z,4.83
2023-01-29T16:00:33.455Z,5.17
2023-01-29T16:03:15.301Z,5.63
2023-01-29T16:05:43.852Z,5.27
2023-01-29T16:08:14.787Z,5.03
2023-01-29T16:10:45.026Z,5.20
2023-01-29T16:13:21.604Z,5.23
2023-01-29T16:15:57.348Z,5.40
2023-01-29T16:18:30.814Z,5.83
2023-01-29T16:21:01.863Z,6.07
2023-01-29T16:23:33.288Z,6.20
2023-01-29T16:26:06.103Z,6.00
2023-01-29T16:28:34.283Z,6.00
2023-01-29T16:31:04.333Z,5.20
2023-01-29T16:33:36.884Z,5.23
2023-01-29T16:36:11.568Z,4.70
2023-01-29T16:38:44.589Z,4.77
2023-01-29T16:41:28.676Z,5.00
2023-01-29T16:43:58.558Z,5.13
2023-01-29T16:46:32.490Z,5.80
2023-01-29T16:49:02.158Z,5.73
2023-01-29T16:51:32.125Z,5.70
2023-01-29T16:54:03.821Z,6.17
2023-01-29T16:56:34.684Z,6.07
2023-01-29T16:59:05.643Z,6.37
2023-01-29T17:01:35.807Z,6.33
2023-01-29T17:04:11.823Z,7.73
2023-01-29T17:06:43.280Z,7.90
2023-01-29T17:09:21.792Z,6.83
2023-01-29T17:11:55.860Z,7.50
2023-01-29T17:14:25.394Z,12.77
2023-01-29T17:16:55.950Z,9.73
2023-01-29T17:19:25.826Z,8.50
2023-01-29T17:21:53.725Z,8.73
2023-01-29T17:24:21.553Z,8.87
2023-01-29T17:26:49.816Z,8.60
2023-01-29T17:29:21.207Z,8.70
2023-01-29T17:31:49.243Z,9.97
2023-01-29T17:34:18.655Z,9.57
2023-01-29T17:36:48.136Z,9.00
2023-01-29T17:39:19.082Z,9.40
2023-01-29T17:41:48.603Z,8.63
2023-01-29T17:44:16.549Z,9.03
2023-01-29T17:46:44.713Z,8.60
2023-01-29T17:49:23.625Z,8.67
2023-01-29T17:51:54.041Z,10.87
2023-01-29T17:54:22.649Z,13.50
2023-01-29T17:56:51.265Z,9.17
2023-01-29T17:59:20.767Z,16.97
2023-01-29T18:01:49.909Z,15.10
2023-01-29T18:04:18.680Z,9.97
2023-01-29T18:06:49.516Z,11.57
2023-01-29T18:09:20.577Z,12.23
2023-01-29T18:11:49.581Z,9.90
2023-01-29T18:14:17.437Z,8.13
2023-01-29T18:16:46.204Z,9.80
2023-01-29T18:19:16.355Z,8.70
2023-01-29T18:21:44.287Z,9.53
2023-01-29T18:24:12.195Z,9.63
2023-01-29T18:26:41.519Z,9.17
2023-01-29T18:29:09.443Z,9.77
2023-01-29T18:31:37.392Z,9.33
2023-01-29T18:34:05.585Z,11.40
2023-01-29T18:36:33.484Z,9.87
2023-01-29T18:39:01.362Z,10.23
2023-01-29T18:41:29.450Z,10.40
2023-01-29T18:43:58.622Z,9.97
2023-01-29T18:46:26.518Z,10.37
2023-01-29T18:48:54.524Z,11.60
2023-01-29T18:51:22.332Z,15.00
2023-01-29T18:53:51.864Z,13.23
2023-01-29T18:56:20.118Z,11.13
2023-01-29T18:58:52.113Z,10.47
2023-01-29T19:01:22.545Z,10.70
2023-01-29T19:03:50.475Z,20.13
2023-01-29T19:06:18.310Z,31.67
2023-01-29T19:08:47.282Z,16.43
2023-01-29T19:11:15.329Z,13.90
2023-01-29T19:13:43.368Z,14.43
2023-01-29T19:16:13.449Z,13.73
2023-01-29T19:18:43.514Z,12.03
2023-01-29T19:21:13.483Z,11.67
2023-01-29T19:23:42.083Z,11.43
2023-01-29T19:26:12.010Z,12.80
2023-01-29T19:28:40.197Z,12.80
2023-01-29T19:31:09.305Z,13.27
2023-01-29T19:33:37.317Z,13.70
2023-01-29T19:36:07.416Z,13.77
2023-01-29T19:38:38.428Z,13.13
2023-01-29T19:41:06.609Z,11.67
2023-01-29T19:43:34.598Z,11.90
2023-01-29T19:46:03.307Z,11.10
2023-01-29T19:48:31.337Z,11.40
2023-01-29T19:51:01.016Z,10.83
2023-01-29T19:53:30.926Z,11.03
2023-01-29T19:56:00.119Z,12.20
2023-01-29T19:58:28.207Z,11.63
2023-01-29T20:00:57.343Z,10.10
2023-01-29T20:03:26.257Z,10.27
2023-01-29T20:05:54.212Z,10.70
2023-01-29T20:08:23.731Z,10.63
2023-01-29T20:10:52.939Z,10.50
2023-01-29T20:13:20.789Z,11.83
2023-01-29T20:15:50.143Z,11.40
2023-01-29T20:18:18.842Z,12.27
2023-01-29T20:20:48.344Z,12.23
2023-01-29T20:23:25.110Z,13.13
2023-01-29T20:26:05.288Z,13.83
2023-01-29T20:28:33.211Z,14.03
2023-01-29T20:31:01.277Z,13.43
2023-01-29T20:33:29.256Z,14.20
2023-01-29T20:35:58.560Z,14.50
2023-01-29T20:38:30.169Z,15.17
2023-01-29T20:41:04.828Z,15.00
2023-01-29T20:43:32.850Z,14.80
2023-01-29T20:46:01.281Z,14.20
2023-01-29T20:48:29.500Z,14.13
2023-01-29T20:50:57.393Z,13.93
2023-01-29T20:53:25.276Z,14.37
2023-01-29T20:55:53.211Z,13.47
2023-01-29T20:58:22.579Z,13.80
2023-01-29T21:00:50.573Z,13.73
2023-01-29T21:03:18.421Z,14.00
2023-01-29T21:05:46.542Z,13.50
2023-01-29T21:08:14.366Z,13.67
2023-01-29T21:10:43.442Z,13.43
2023-01-29T21:13:11.604Z,14.00
2023-01-29T21:15:42.923Z,16.07
2023-01-29T21:18:10.847Z,14.60
2023-01-29T21:20:38.701Z,14.57
2023-01-29T21:23:07.277Z,13.50
2023-01-29T21:25:35.975Z,14.47
2023-01-29T21:28:04.310Z,13.57
2023-01-29T21:30:32.606Z,14.63
2023-01-29T21:33:01.797Z,13.67
2023-01-29T21:35:29.654Z,13.50
2023-01-29T21:37:57.510Z,15.10
2023-01-29T21:40:26.049Z,14.47
2023-01-29T21:43:11.423Z,13.10
2023-01-29T21:45:39.800Z,14.00
2023-01-29T21:48:09.734Z,13.77
2023-01-29T21:50:37.605Z,13.40
2023-01-29T21:53:05.818Z,14.23
2023-01-29T21:55:33.719Z,13.33
2023-01-29T21:58:01.621Z,13.63
2023-01-29T22:00:29.615Z,14.07
2023-01-29T22:02:57.549Z,13.97
2023-01-29T22:05:29.011Z,13.80
2023-01-29T22:07:57.082Z,14.50
2023-01-29T22:10:25.202Z,14.80
2023-01-29T22:12:53.382Z,13.70
2023-01-29T22:15:23.603Z,14.40
2023-01-29T22:17:52.016Z,13.87
2023-01-29T22:20:20.343Z,13.30
2023-01-29T22:22:49.683Z,13.13
2023-01-29T22:25:20.001Z,12.63
2023-01-29T22:27:47.951Z,12.93
2023-01-29T22:30:16.492Z,13.40
2023-01-29T22:32:44.523Z,13.03
2023-01-29T22:35:12.348Z,13.90
2023-01-29T22:37:40.196Z,13.57
2023-01-29T22:40:10.928Z,13.57
2023-01-29T22:42:38.759Z,12.70
2023-01-29T22:45:08.652Z,13.70
2023-01-29T22:47:36.560Z,12.67
2023-01-29T22:50:05.021Z,12.17
2023-01-29T22:52:38.348Z,12.57
2023-01-29T22:55:10.302Z,11.90
2023-01-29T22:57:38.576Z,12.50
2023-01-29T23:00:10.375Z,12.40
